Time;durP1;ratioP1;P1;durP2;ratioP2;P2;SDS_P1;SDS_P2;PMS_P1;PMS_P2;Temp;Humidity;BMP_temperature;BMP_pressure;BME280_temperature;BME280_humidity;BME280_pressure;Samples;Min_cycle;Max_cycle;Signal;HPM_P1;HPM_P2
2022/08/21 09:18:14;;;;;;;;;;;20.40;99.90;;;;;;5100422;27;20472;-80
2022/08/21 09:20:43;;;;;;;;;;;20.50;99.90;;;;;;5104335;28;19908;-80
2022/08/21 09:23:32;;;;;;;3.78;1.92;;;20.40;99.90;;;;;;5102260;28;19908;-79
2022/08/21 09:26:07;;;;;;;5.72;2.15;;;20.50;99.90;;;;;;5108630;28;20035;-78
2022/08/21 09:28:35;;;;;;;3.55;1.85;;;20.40;99.90;;;;;;5107422;28;20384;-79
2022/08/21 09:31:06;;;;;;;10.45;2.42;;;20.40;99.90;;;;;;5111176;27;20039;-78
2022/08/21 09:33:32;;;;;;;6.95;2.45;;;20.40;99.90;;;;;;5108689;28;20035;-81
2022/08/21 09:35:58;;;;;;;10.48;2.42;;;20.40;99.90;;;;;;5101344;28;20028;-80
2022/08/21 09:38:33;;;;;;;8.70;2.83;;;20.40;99.90;;;;;;5104772;28;20131;-80
2022/08/21 09:41:03;;;;;;;6.75;1.73;;;20.40;99.90;;;;;;5098311;28;20135;-81
2022/08/21 09:43:30;;;;;;;5.85;2.08;;;20.40;99.90;;;;;;5095009;28;20035;-82
2022/08/21 09:46:19;;;;;;;4.35;2.00;;;20.30;99.90;;;;;;5105000;28;20545;-83
2022/08/21 09:48:48;;;;;;;9.57;2.60;;;20.30;99.90;;;;;;5106201;27;20031;-82
2022/08/21 09:51:22;;;;;;;7.13;2.20;;;20.30;99.90;;;;;;5104471;28;20031;-81
2022/08/21 09:53:53;;;;;;;6.65;2.00;;;20.30;99.90;;;;;;5107324;28;20023;-83
2022/08/21 09:59:40;;;;;;;5.68;2.17;;;20.30;99.90;;;;;;5099095;28;20037;-79
2022/08/21 10:02:27;;;;;;;8.48;2.03;;;20.30;99.90;;;;;;5101545;28;20062;-81
2022/08/21 10:05:02;;;;;;;6.70;2.63;;;20.30;99.90;;;;;;5104094;28;20028;-81
2022/08/21 10:07:31;;;;;;;5.57;2.30;;;20.30;99.90;;;;;;5105758;28;20042;-81
2022/08/21 10:10:09;;;;;;;8.27;2.45;;;20.30;99.90;;;;;;5103760;28;20038;-80
2022/08/21 10:12:35;;;;;;;6.80;2.05;;;20.30;99.90;;;;;;5092757;28;20047;-82
2022/08/21 10:15:20;;;;;;;9.20;3.00;;;20.30;99.90;;;;;;5108474;28;20070;-81
2022/08/21 10:18:06;;;;;;;6.03;1.70;;;20.30;99.90;;;;;;5101312;28;20531;-80
2022/08/21 10:20:45;;;;;;;7.20;2.33;;;20.30;99.90;;;;;;5096995;28;20039;-84
2022/08/21 10:23:49;;;;;;;7.95;2.58;;;20.30;99.90;;;;;;5088307;28;20031;-80
2022/08/21 10:26:27;;;;;;;4.88;2.30;;;20.30;99.90;;;;;;5078282;28;20044;-81
2022/08/21 10:29:11;;;;;;;8.88;2.88;;;20.30;99.90;;;;;;5095177;28;20469;-81
2022/08/21 10:32:08;;;;;;;4.90;2.03;;;20.30;99.90;;;;;;5077533;28;20043;-81
2022/08/21 10:35:07;;;;;;;5.47;2.55;;;20.30;99.90;;;;;;5078451;28;20062;-82
2022/08/21 10:38:26;;;;;;;9.60;2.88;;;20.30;99.90;;;;;;5081321;28;20042;-81
2022/08/21 10:41:10;;;;;;;3.60;2.15;;;20.40;99.90;;;;;;5086460;28;20024;-80
2022/08/21 10:43:49;;;;;;;5.68;2.38;;;20.50;99.90;;;;;;5086463;28;20035;-81
2022/08/21 10:46:33;;;;;;;7.15;2.67;;;20.70;99.90;;;;;;5074574;28;20074;-80
2022/08/21 10:49:15;;;;;;;8.00;2.58;;;20.80;99.90;;;;;;5078101;28;20035;-80
2022/08/21 10:52:09;;;;;;;10.35;2.88;;;20.90;99.90;;;;;;5082984;28;20038;-83
2022/08/21 10:55:03;;;;;;;7.53;2.55;;;20.90;99.90;;;;;;5076780;28;20282;-81
2022/08/21 10:58:09;;;;;;;9.35;3.25;;;20.90;99.90;;;;;;5083768;28;20043;-81
2022/08/21 11:00:53;;;;;;;8.63;2.92;;;21.00;99.90;;;;;;5087338;28;20036;-81
2022/08/21 11:03:33;;;;;;;7.10;2.70;;;21.00;99.90;;;;;;5084368;28;20032;-83
2022/08/21 11:06:08;;;;;;;4.85;2.85;;;20.90;99.90;;;;;;5080529;28;20031;-80
2022/08/21 11:08:39;;;;;;;3.17;2.08;;;20.90;99.90;;;;;;5085086;28;20500;-82
2022/08/21 11:11:08;;;;;;;5.97;2.08;;;20.90;99.90;;;;;;5093044;28;20070;-80
2022/08/21 11:13:55;;;;;;;7.90;3.33;;;20.80;99.90;;;;;;5076483;28;20500;-82
2022/08/21 11:16:48;;;;;;;7.03;2.30;;;20.80;99.90;;;;;;5088115;28;20055;-81
2022/08/21 11:19:28;;;;;;;5.60;2.35;;;20.90;99.90;;;;;;5086855;28;20247;-80
2022/08/21 11:22:00;;;;;;;7.30;1.90;;;20.90;99.90;;;;;;5088346;28;20115;-81
2022/08/21 11:24:47;;;;;;;8.90;2.60;;;20.80;99.90;;;;;;5088672;28;20043;-81
2022/08/21 11:27:25;;;;;;;6.38;2.35;;;20.90;99.90;;;;;;5090231;28;20489;-80
2022/08/21 11:29:59;;;;;;;9.65;2.58;;;20.90;99.90;;;;;;5087829;28;20400;-81
2022/08/21 11:32:45;;;;;;;3.40;1.65;;;21.00;99.90;;;;;;5085370;28;20024;-81
2022/08/21 11:35:17;;;;;;;8.05;2.75;;;21.10;99.90;;;;;;5085512;28;20515;-81
2022/08/21 11:37:58;;;;;;;9.15;2.40;;;21.20;99.90;;;;;;5098016;28;20050;-82
2022/08/21 11:40:42;;;;;;;8.20;2.53;;;21.30;99.90;;;;;;5089805;28;20382;-81
2022/08/21 11:43:35;;;;;;;5.50;2.60;;;21.20;99.90;;;;;;5080167;28;20532;-80
2022/08/21 11:46:18;;;;;;;7.68;2.60;;;21.20;99.90;;;;;;5075745;28;20052;-81
2022/08/21 11:49:01;;;;;;;6.45;2.30;;;21.20;99.90;;;;;;5088407;28;20122;-80
2022/08/21 11:51:36;;;;;;;6.88;2.58;;;21.30;99.90;;;;;;5081932;28;20499;-80
2022/08/21 11:54:23;;;;;;;5.90;2.73;;;21.30;99.90;;;;;;5089367;28;20028;-83
2022/08/21 11:56:56;;;;;;;8.38;2.45;;;21.30;99.90;;;;;;5079843;28;20536;-83
2022/08/21 11:59:36;;;;;;;6.50;2.13;;;21.40;99.90;;;;;;5089933;28;20028;-80
2022/08/21 12:02:02;;;;;;;5.57;2.25;;;21.60;99.90;;;;;;5090360;28;20032;-84
2022/08/21 12:04:35;;;;;;;12.55;3.95;;;21.60;99.90;;;;;;5086887;28;20032;-81
2022/08/21 12:07:13;;;;;;;11.55;2.35;;;21.80;99.90;;;;;;5079124;28;20511;-81
2022/08/21 12:09:39;;;;;;;5.97;2.53;;;21.90;99.90;;;;;;5082885;28;20259;-81
2022/08/21 12:12:27;;;;;;;6.68;2.13;;;21.90;99.90;;;;;;5078937;28;20139;-82
2022/08/21 12:15:19;;;;;;;9.30;2.60;;;21.90;99.90;;;;;;5084560;28;20525;-80
2022/08/21 12:17:54;;;;;;;9.75;2.72;;;21.90;99.90;;;;;;5081035;28;20099;-81
2022/08/21 12:20:20;;;;;;;11.02;3.20;;;21.90;99.90;;;;;;5093911;28;20611;-81
2022/08/21 12:23:09;;;;;;;9.40;2.70;;;21.90;99.90;;;;;;5082734;28;20020;-83
2022/08/21 12:26:00;;;;;;;9.77;2.50;;;21.90;99.90;;;;;;5090954;28;20154;-82
2022/08/21 12:28:27;;;;;;;6.53;2.38;;;21.80;99.90;;;;;;5088864;28;20032;-80
2022/08/21 12:30:53;;;;;;;6.75;2.80;;;21.80;99.90;;;;;;5086986;28;20031;-80
2022/08/21 12:33:33;;;;;;;8.05;2.90;;;21.80;99.90;;;;;;5089046;28;20024;-82
2022/08/21 12:36:13;;;;;;;7.55;2.63;;;21.90;99.90;;;;;;5087000;28;20032;-80
2022/08/21 12:38:52;;;;;;;4.18;2.08;;;21.90;99.90;;;;;;5084210;28;20583;-80
2022/08/21 12:41:24;;;;;;;9.60;3.13;;;21.90;99.90;;;;;;5083485;28;20032;-81
2022/08/21 12:43:58;;;;;;;6.32;2.58;;;22.00;99.90;;;;;;5086910;28;20023;-81
2022/08/21 12:46:34;;;;;;;10.47;3.53;;;22.00;99.90;;;;;;5081372;28;20094;-79
2022/08/21 12:49:08;;;;;;;16.58;6.07;;;22.20;99.90;;;;;;5089294;28;20031;-79
2022/08/21 12:51:45;;;;;;;5.38;2.70;;;22.50;99.90;;;;;;5088171;28;20465;-82
2022/08/21 12:54:23;;;;;;;10.65;2.70;;;22.80;99.90;;;;;;5088429;28;20028;-80
2022/08/21 12:56:57;;;;;;;11.15;3.33;;;22.90;99.90;;;;;;5088965;28;20036;-81
2022/08/21 12:59:23;;;;;;;8.85;3.65;;;23.00;99.90;;;;;;5075191;28;20478;-80
2022/08/21 13:01:51;;;;;;;10.35;2.95;;;23.00;99.90;;;;;;5084322;28;20031;-83
2022/08/21 13:04:22;;;;;;;4.95;2.65;;;23.00;99.90;;;;;;5089840;28;20058;-81
2022/08/21 13:06:51;;;;;;;9.05;2.58;;;23.00;99.90;;;;;;5087051;28;20036;-80
2022/08/21 13:09:26;;;;;;;7.18;2.47;;;23.00;99.90;;;;;;5084472;28;20024;-82
2022/08/21 13:11:53;;;;;;;10.35;2.75;;;23.00;99.90;;;;;;5087487;28;20043;-80
2022/08/21 13:14:24;;;;;;;6.95;2.70;;;22.90;99.90;;;;;;5083820;28;20024;-81
2022/08/21 13:16:54;;;;;;;13.35;2.95;;;22.90;99.90;;;;;;5081540;28;20043;-81
2022/08/21 13:19:20;;;;;;;6.88;2.75;;;22.90;99.90;;;;;;5093744;28;20035;-83
2022/08/21 13:21:46;;;;;;;7.55;3.15;;;23.00;99.90;;;;;;5087336;28;20028;-82
2022/08/21 13:24:21;;;;;;;8.68;3.03;;;23.00;99.90;;;;;;5098488;28;20423;-82
2022/08/21 13:26:48;;;;;;;7.97;2.65;;;23.00;99.90;;;;;;5085988;28;20032;-85
2022/08/21 13:29:17;;;;;;;8.90;3.15;;;23.00;99.90;;;;;;5090988;28;20081;-82
2022/08/21 13:31:53;;;;;;;5.63;2.72;;;22.90;99.90;;;;;;5083668;28;20059;-83
2022/08/21 13:34:33;;;;;;;4.15;3.20;;;22.90;99.90;;;;;;5090842;28;20024;-82
2022/08/21 13:37:03;;;;;;;6.65;2.65;;;22.90;99.90;;;;;;5084869;28;20031;-82
2022/08/21 13:39:29;;;;;;;9.48;3.15;;;22.80;99.90;;;;;;5083554;28;20033;-81
2022/08/21 13:41:58;;;;;;;6.88;2.63;;;22.70;99.90;;;;;;5089956;28;20036;-81
2022/08/21 13:44:31;;;;;;;10.48;3.40;;;22.70;99.90;;;;;;5087202;28;20032;-82
2022/08/21 13:47:00;;;;;;;4.78;2.53;;;22.70;99.90;;;;;;5081614;28;20105;-81
2022/08/21 13:49:37;;;;;;;7.32;3.13;;;22.60;99.90;;;;;;5089404;28;20454;-81
2022/08/21 13:52:03;;;;;;;6.68;2.38;;;22.60;99.90;;;;;;5083979;28;20039;-82
2022/08/21 13:54:36;;;;;;;6.28;2.60;;;22.60;99.90;;;;;;5085434;27;20518;-81
2022/08/21 13:57:02;;;;;;;7.78;2.85;;;22.60;99.90;;;;;;5085078;28;20043;-81
2022/08/21 13:59:30;;;;;;;6.47;2.60;;;22.60;99.90;;;;;;5093935;28;20036;-81
2022/08/21 14:02:00;;;;;;;10.18;3.75;;;22.60;99.90;;;;;;5092589;28;20138;-81
2022/08/21 14:04:50;;;;;;;13.07;3.22;;;22.70;99.90;;;;;;5088019;28;20043;-82
2022/08/21 14:07:19;;;;;;;6.45;2.80;;;22.90;99.90;;;;;;5090003;28;20179;-81
2022/08/21 14:09:46;;;;;;;7.18;2.30;;;23.10;99.90;;;;;;5089210;28;20032;-84
2022/08/21 14:12:16;;;;;;;5.65;3.25;;;23.10;99.90;;;;;;5087325;28;20388;-83
2022/08/21 14:14:42;;;;;;;7.78;2.53;;;23.10;99.90;;;;;;5088219;28;20055;-82
2022/08/21 14:17:13;;;;;;;8.85;2.50;;;23.10;99.90;;;;;;5098783;28;20125;-81
2022/08/21 14:19:40;;;;;;;5.68;2.50;;;23.10;99.90;;;;;;5082457;28;20024;-84
2022/08/21 14:22:43;;;;;;;6.07;2.85;;;23.00;99.90;;;;;;5088280;28;20024;-82
2022/08/21 14:25:36;;;;;;;10.60;2.80;;;23.00;99.90;;;;;;5080918;28;20028;-81
2022/08/21 14:28:25;;;;;;;9.05;2.92;;;23.10;99.90;;;;;;5093701;28;20035;-82
2022/08/21 14:30:51;;;;;;;6.63;2.97;;;23.20;99.90;;;;;;5094547;28;20111;-82
2022/08/21 14:33:32;;;;;;;7.47;3.25;;;23.30;99.90;;;;;;5089307;28;20545;-83
2022/08/21 14:35:58;;;;;;;5.18;2.95;;;23.40;99.90;;;;;;5094496;28;20038;-82
2022/08/21 14:38:27;;;;;;;7.03;2.90;;;23.40;99.90;;;;;;5083609;28;20067;-83
2022/08/21 14:40:57;;;;;;;7.18;2.67;;;23.40;99.90;;;;;;5091081;28;20028;-82
2022/08/21 14:43:25;;;;;;;6.00;2.67;;;23.40;99.90;;;;;;5086003;28;20031;-83
2022/08/21 14:45:50;;;;;;;5.78;2.58;;;23.40;99.90;;;;;;5093838;28;20024;-85
2022/08/21 14:48:16;;;;;;;5.35;2.38;;;23.30;99.90;;;;;;5080896;28;20081;-82
2022/08/21 14:50:42;;;;;;;8.32;3.05;;;23.20;99.90;;;;;;5092008;28;20024;-82
2022/08/21 14:53:07;;;;;;;6.75;2.70;;;23.20;99.90;;;;;;5091250;28;20028;-82
2022/08/21 14:56:04;;;;;;;7.70;2.78;;;23.20;99.90;;;;;;5088748;28;20023;-85
2022/08/21 14:58:19;;;;;;;;;;;23.20;99.90;;;;;;5084892;28;20036;-86
2022/08/21 15:00:45;;;;;;;14.13;3.13;;;23.20;99.90;;;;;;5089758;28;20395;-83
2022/08/21 15:03:10;;;;;;;11.63;3.10;;;23.10;99.90;;;;;;5097478;28;20063;-83
2022/08/21 15:05:36;;;;;;;6.13;2.95;;;23.10;99.90;;;;;;5083643;28;20107;-83
2022/08/21 15:08:02;;;;;;;6.55;2.58;;;23.10;99.90;;;;;;5096741;28;20048;-84
2022/08/21 15:10:29;;;;;;;7.05;2.83;;;23.10;99.90;;;;;;5079988;28;20028;-84
2022/08/21 15:12:55;;;;;;;12.07;2.80;;;23.00;99.90;;;;;;5078889;28;20065;-82
2022/08/21 15:15:21;;;;;;;7.03;2.90;;;23.00;99.90;;;;;;5096193;28;20035;-81
2022/08/21 15:17:46;;;;;;;9.23;2.80;;;23.10;99.90;;;;;;5092000;28;20044;-83
2022/08/21 15:20:13;;;;;;;7.32;3.00;;;23.10;99.90;;;;;;5081370;28;20020;-83
2022/08/21 15:22:39;;;;;;;6.95;2.20;;;23.10;99.90;;;;;;5087265;28;20040;-86
2022/08/21 15:25:05;;;;;;;7.63;2.38;;;23.10;99.90;;;;;;5088727;28;20032;-83
2022/08/21 15:27:31;;;;;;;9.23;2.50;;;23.20;99.90;;;;;;5083194;28;20029;-82
2022/08/21 15:29:56;;;;;;;7.07;2.40;;;23.30;99.90;;;;;;5091121;28;20047;-84
2022/08/21 15:32:26;;;;;;;9.05;2.55;;;23.40;99.90;;;;;;5083271;28;20154;-82
2022/08/21 15:34:52;;;;;;;8.38;2.70;;;23.50;99.90;;;;;;5087507;28;20174;-82
2022/08/21 15:37:19;;;;;;;9.07;3.47;;;23.60;99.90;;;;;;5077236;28;20039;-83
2022/08/21 15:39:44;;;;;;;7.70;2.95;;;23.70;99.90;;;;;;5078493;28;20097;-83
2022/08/21 15:42:12;;;;;;;6.82;2.55;;;23.70;99.90;;;;;;5099185;28;20020;-82
2022/08/21 15:44:39;;;;;;;7.63;2.85;;;23.80;99.90;;;;;;5083265;28;20020;-82
2022/08/21 15:47:06;;;;;;;6.32;2.38;;;23.80;99.60;;;;;;5093166;28;20029;-83
2022/08/21 15:49:31;;;;;;;5.68;2.33;;;24.00;96.80;;;;;;5086488;28;20425;-83
2022/08/21 15:51:57;;;;;;;5.97;2.40;;;24.10;97.70;;;;;;5080031;28;20126;-83
2022/08/21 15:54:22;;;;;;;10.65;2.85;;;24.10;97.80;;;;;;5078682;28;20044;-82
2022/08/21 15:56:50;;;;;;;7.93;2.70;;;24.10;97.50;;;;;;5076399;28;20392;-87
2022/08/21 15:59:21;;;;;;;8.35;3.20;;;24.10;97.40;;;;;;5088098;28;20038;-82
2022/08/21 16:01:48;;;;;;;6.97;2.85;;;24.10;96.40;;;;;;5088516;28;20115;-86
2022/08/21 16:04:27;;;;;;;9.55;2.60;;;24.10;94.80;;;;;;5090438;28;20024;-82
2022/08/21 16:06:53;;;;;;;5.03;2.40;;;24.10;92.50;;;;;;5085648;28;20027;-84
2022/08/21 16:09:19;;;;;;;5.18;2.35;;;24.20;87.80;;;;;;5092241;27;20492;-86
2022/08/21 16:11:45;;;;;;;7.00;2.63;;;24.40;77.20;;;;;;5083555;28;20117;-82
2022/08/21 16:14:14;;;;;;;5.65;2.03;;;24.50;78.60;;;;;;5102412;28;20365;-83
2022/08/21 16:16:40;;;;;;;7.03;2.75;;;24.60;79.10;;;;;;5102291;28;20048;-83
2022/08/21 16:19:06;;;;;;;7.45;1.90;;;24.80;81.40;;;;;;5082780;28;20063;-83
2022/08/21 16:21:32;;;;;;;4.40;1.98;;;24.90;80.70;;;;;;5096970;28;20078;-83
2022/08/21 16:23:58;;;;;;;8.05;2.25;;;25.00;81.50;;;;;;5102515;28;20050;-86
2022/08/21 16:26:23;;;;;;;13.55;2.92;;;25.20;80.10;;;;;;5089157;28;20427;-83
2022/08/21 16:28:52;;;;;;;10.07;2.50;;;25.30;79.20;;;;;;5090645;28;20468;-85
2022/08/21 16:31:18;;;;;;;9.25;2.15;;;25.50;79.30;;;;;;5088349;28;20488;-85
2022/08/21 16:33:48;;;;;;;7.75;2.40;;;25.50;75.20;;;;;;5090101;28;20024;-83
2022/08/21 16:36:14;;;;;;;10.43;2.55;;;25.40;77.10;;;;;;5089374;28;20031;-82
2022/08/21 16:38:42;;;;;;;4.95;1.90;;;25.20;76.70;;;;;;5088870;28;20028;-83
2022/08/21 16:41:12;;;;;;;11.15;2.35;;;25.00;76.20;;;;;;5092235;28;20434;-83
2022/08/21 16:43:40;;;;;;;4.20;2.35;;;24.90;77.20;;;;;;5088455;28;20552;-82
2022/08/21 16:46:10;;;;;;;10.02;2.33;;;24.70;78.80;;;;;;5086635;28;20048;-81
2022/08/21 16:48:35;;;;;;;4.97;2.60;;;24.60;83.10;;;;;;5089476;28;20073;-81
2022/08/21 16:51:01;;;;;;;11.02;2.40;;;24.50;84.80;;;;;;5080900;28;20029;-83
2022/08/21 16:53:27;;;;;;;4.97;2.30;;;24.40;86.30;;;;;;5086595;28;20055;-84
2022/08/21 16:55:52;;;;;;;7.60;2.83;;;24.30;86.50;;;;;;5087338;28;20678;-83
2022/08/21 16:58:29;;;;;;;6.05;2.33;;;24.20;83.40;;;;;;5085219;28;20044;-83
2022/08/21 17:00:56;;;;;;;4.97;2.45;;;24.00;86.40;;;;;;5077421;28;20476;-82
2022/08/21 17:03:29;;;;;;;8.70;2.45;;;23.90;89.30;;;;;;5087040;28;20428;-82
2022/08/21 17:05:55;;;;;;;8.90;2.58;;;23.80;94.70;;;;;;5082418;28;20035;-83
2022/08/21 17:08:20;;;;;;;3.22;2.10;;;23.80;99.90;;;;;;5083693;28;20315;-83
2022/08/21 17:10:48;;;;;;;4.43;2.67;;;23.70;99.90;;;;;;5083177;28;20089;-82
2022/08/21 17:13:14;;;;;;;4.85;2.10;;;23.70;99.90;;;;;;5087484;28;20028;-82
2022/08/21 17:15:40;;;;;;;7.07;2.78;;;23.60;99.90;;;;;;5079066;28;20044;-82
2022/08/21 17:18:10;;;;;;;10.80;2.28;;;23.60;99.90;;;;;;5091455;28;20150;-82
2022/08/21 17:20:39;;;;;;;11.63;2.85;;;23.50;99.90;;;;;;5081529;28;20506;-82
2022/08/21 17:23:05;;;;;;;4.47;2.15;;;23.40;99.90;;;;;;5097081;28;20086;-83
2022/08/21 17:25:31;;;;;;;9.32;3.00;;;23.40;99.90;;;;;;5087162;28;20082;-83
2022/08/21 17:27:58;;;;;;;8.85;2.55;;;23.20;99.90;;;;;;5080684;28;20526;-83
2022/08/21 17:30:24;;;;;;;10.75;2.88;;;23.10;99.90;;;;;;5088256;28;20085;-84
2022/08/21 17:32:53;;;;;;;6.40;2.45;;;22.90;99.90;;;;;;5079528;28;20099;-82
2022/08/21 17:35:19;;;;;;;9.25;2.85;;;22.80;99.90;;;;;;5091896;28;20054;-82
2022/08/21 17:37:45;;;;;;;6.78;3.03;;;22.70;99.90;;;;;;5082660;28;20469;-82
2022/08/21 17:40:13;;;;;;;6.22;2.90;;;22.60;99.90;;;;;;5090932;28;20028;-84
2022/08/21 17:42:40;;;;;;;6.47;2.70;;;22.40;99.90;;;;;;5094616;28;20492;-82
2022/08/21 17:45:10;;;;;;;6.43;2.55;;;22.30;99.90;;;;;;5093641;28;20124;-83
2022/08/21 17:47:36;;;;;;;5.78;2.65;;;22.20;99.90;;;;;;5088129;28;20059;-83
2022/08/21 17:50:03;;;;;;;3.78;2.85;;;22.10;99.90;;;;;;5096384;28;20028;-86
2022/08/21 17:52:28;;;;;;;9.32;2.50;;;22.00;99.90;;;;;;5090746;28;20039;-82
2022/08/21 17:54:54;;;;;;;12.75;3.65;;;21.90;99.90;;;;;;5092548;28;20028;-83
2022/08/21 17:57:22;;;;;;;9.05;3.47;;;21.90;99.90;;;;;;5094903;28;20044;-83
2022/08/21 17:59:48;;;;;;;6.93;2.70;;;21.80;99.90;;;;;;5091439;28;20025;-86
2022/08/21 18:02:15;;;;;;;6.32;2.55;;;21.60;99.90;;;;;;5086712;28;20085;-82
2022/08/21 18:04:41;;;;;;;6.68;3.05;;;21.50;99.90;;;;;;5088930;28;20032;-83
2022/08/21 18:07:07;;;;;;;7.47;3.00;;;21.40;99.90;;;;;;5103625;28;20066;-83
2022/08/21 18:09:33;;;;;;;12.82;3.38;;;21.30;99.90;;;;;;5093288;28;20028;-86
2022/08/21 18:11:59;;;;;;;4.75;2.55;;;21.20;99.90;;;;;;5096345;28;20064;-83
2022/08/21 18:14:29;;;;;;;5.50;2.50;;;21.10;99.90;;;;;;5091193;28;20028;-84
2022/08/21 18:16:56;;;;;;;4.93;2.70;;;21.00;99.90;;;;;;5097292;28;20036;-86
2022/08/21 18:19:24;;;;;;;5.03;2.33;;;20.90;99.90;;;;;;5092931;28;20185;-83
2022/08/21 18:21:55;;;;;;;5.40;2.60;;;20.90;99.90;;;;;;5076134;28;20048;-88
2022/08/21 18:24:22;;;;;;;5.28;3.05;;;20.70;99.90;;;;;;5091141;28;20089;-83
2022/08/21 18:26:48;;;;;;;13.02;3.50;;;20.70;99.90;;;;;;5098033;28;20028;-84
2022/08/21 18:29:16;;;;;;;6.22;2.55;;;20.60;99.90;;;;;;5096482;28;20032;-83
2022/08/21 18:31:44;;;;;;;7.93;2.80;;;20.50;99.90;;;;;;5093182;28;20031;-82
2022/08/21 18:34:31;;;;;;;6.82;2.80;;;20.40;99.90;;;;;;5086591;28;20465;-83
2022/08/21 18:36:57;;;;;;;6.15;2.40;;;20.30;99.90;;;;;;5087243;28;20040;-83
2022/08/21 18:39:24;;;;;;;8.68;2.75;;;20.30;99.90;;;;;;5088704;28;20338;-82
2022/08/21 18:41:50;;;;;;;6.88;3.45;;;20.20;99.90;;;;;;5091804;28;20051;-83
2022/08/21 18:44:21;;;;;;;4.32;2.58;;;20.20;99.90;;;;;;5086096;28;20036;-84
2022/08/21 18:46:54;;;;;;;4.10;2.35;;;20.10;99.90;;;;;;5095901;28;20076;-84
2022/08/21 18:49:20;;;;;;;5.22;2.25;;;20.10;99.90;;;;;;5090691;28;20024;-84
2022/08/21 18:51:46;;;;;;;9.50;3.03;;;20.00;99.90;;;;;;5095206;28;21019;-83
2022/08/21 18:54:12;;;;;;;7.70;2.95;;;20.00;99.90;;;;;;5092942;28;20028;-83
2022/08/21 18:56:38;;;;;;;8.68;2.45;;;19.90;99.90;;;;;;5091724;28;20039;-83
2022/08/21 18:59:04;;;;;;;7.32;2.92;;;19.80;99.90;;;;;;5096679;28;20097;-87
2022/08/21 19:01:30;;;;;;;10.95;3.05;;;19.80;99.90;;;;;;5095879;28;20023;-85
2022/08/21 19:03:56;;;;;;;6.10;2.67;;;19.70;99.90;;;;;;5076669;28;20032;-84
2022/08/21 19:06:22;;;;;;;7.20;3.33;;;19.60;99.90;;;;;;5093917;28;20043;-83
2022/08/21 19:08:48;;;;;;;9.57;3.28;;;19.50;99.90;;;;;;5091533;28;20024;-85
2022/08/21 19:11:14;;;;;;;6.13;3.08;;;19.40;99.90;;;;;;5089244;28;20032;-83
2022/08/21 19:13:40;;;;;;;4.18;2.20;;;19.40;99.90;;;;;;5084072;28;20028;-83
2022/08/21 19:16:07;;;;;;;9.32;3.42;;;19.40;99.90;;;;;;5086904;28;20035;-83
2022/08/21 19:18:36;;;;;;;8.45;3.05;;;19.30;99.90;;;;;;5080315;28;20035;-84
2022/08/21 19:21:03;;;;;;;5.20;2.65;;;19.30;99.90;;;;;;5084518;28;20389;-85
2022/08/21 19:23:29;;;;;;;6.10;2.85;;;19.20;99.90;;;;;;5087298;28;20027;-83
2022/08/21 19:25:58;;;;;;;8.38;3.28;;;19.10;99.90;;;;;;5089277;28;20032;-83
2022/08/21 19:28:40;;;;;;;10.02;3.63;;;19.10;99.90;;;;;;5085818;28;20032;-83
2022/08/21 19:31:29;;;;;;;6.30;2.78;;;19.00;99.90;;;;;;5092821;28;20039;-88
2022/08/21 19:34:05;;;;;;;5.90;2.53;;;18.90;99.90;;;;;;5090882;28;20181;-84
2022/08/21 19:36:32;;;;;;;9.13;2.97;;;18.80;99.90;;;;;;5099868;28;20066;-84
2022/08/21 19:38:58;;;;;;;4.40;2.55;;;18.70;99.90;;;;;;5077626;28;20468;-84
2022/08/21 19:41:28;;;;;;;9.82;2.78;;;18.70;99.90;;;;;;5081400;28;20050;-84
2022/08/21 19:43:58;;;;;;;5.28;2.97;;;18.70;99.90;;;;;;5083572;28;20056;-84
2022/08/21 19:46:31;;;;;;;5.63;2.70;;;18.60;99.90;;;;;;5080889;28;20032;-84
2022/08/21 19:48:58;;;;;;;11.48;2.95;;;18.60;99.90;;;;;;5085958;28;20120;-83
2022/08/21 19:51:25;;;;;;;8.18;2.65;;;18.60;99.90;;;;;;5087512;28;20532;-83
2022/08/21 19:53:52;;;;;;;6.00;2.63;;;18.50;99.90;;;;;;5092538;28;20157;-84
2022/08/21 19:56:21;;;;;;;6.72;2.83;;;18.50;99.90;;;;;;5088246;28;20028;-84
2022/08/21 19:58:49;;;;;;;7.22;2.70;;;18.50;99.90;;;;;;5080044;28;20089;-86
2022/08/21 20:01:15;;;;;;;5.60;2.70;;;18.40;99.90;;;;;;5084051;28;20444;-85
2022/08/21 20:03:41;;;;;;;11.90;3.10;;;18.40;99.90;;;;;;5081037;28;20113;-84
2022/08/21 20:06:08;;;;;;;17.88;2.60;;;18.40;99.90;;;;;;5077050;28;20116;-83
2022/08/21 20:08:34;;;;;;;10.52;3.00;;;18.40;99.90;;;;;;5076735;28;20036;-83
2022/08/21 20:11:00;;;;;;;7.40;2.13;;;18.40;99.90;;;;;;5080337;28;20217;-83
2022/08/21 20:13:31;;;;;;;3.85;2.35;;;18.40;99.90;;;;;;5081782;28;20035;-85
2022/08/21 20:15:57;;;;;;;4.15;2.20;;;18.50;99.90;;;;;;5076821;28;20127;-83
2022/08/21 20:18:23;;;;;;;3.08;2.00;;;18.60;99.90;;;;;;5084720;28;20043;-83
2022/08/21 20:20:48;;;;;;;4.53;2.10;;;18.60;99.90;;;;;;5088376;28;20078;-84
2022/08/21 20:23:14;;;;;;;9.35;2.72;;;18.60;99.90;;;;;;5085912;28;20119;-84
2022/08/21 20:25:40;;;;;;;2.90;2.13;;;18.60;99.90;;;;;;5088835;28;20036;-84
2022/08/21 20:28:06;;;;;;;4.88;2.13;;;18.60;99.90;;;;;;5081592;28;20032;-85
2022/08/21 20:30:32;;;;;;;9.15;2.75;;;18.60;99.90;;;;;;5086828;28;20036;-87
2022/08/21 20:32:57;;;;;;;7.30;2.50;;;18.40;99.90;;;;;;5077193;28;20036;-84
2022/08/21 20:35:23;;;;;;;5.07;2.28;;;18.50;99.90;;;;;;5093363;28;20044;-83
2022/08/21 20:37:49;;;;;;;3.15;2.28;;;18.40;99.90;;;;;;5090842;28;20036;-86
2022/08/21 20:40:15;;;;;;;3.75;2.03;;;18.40;99.90;;;;;;5093444;28;20024;-84
2022/08/21 20:42:46;;;;;;;5.88;1.98;;;18.40;99.90;;;;;;5100044;28;20028;-83
2022/08/21 20:45:19;;;;;;;5.47;1.90;;;18.40;99.90;;;;;;5080235;28;20170;-83
2022/08/21 20:47:45;;;;;;;4.53;2.10;;;18.30;99.90;;;;;;5089231;28;20269;-83
2022/08/21 20:50:16;;;;;;;4.40;1.95;;;18.30;99.90;;;;;;5095481;28;20024;-84
2022/08/21 20:52:44;;;;;;;2.88;1.85;;;18.20;99.90;;;;;;5088648;28;20113;-83
2022/08/21 20:55:13;;;;;;;5.55;2.00;;;18.20;99.90;;;;;;5086812;28;20485;-85
2022/08/21 20:58:01;;;;;;;7.57;2.40;;;18.10;99.90;;;;;;5096395;28;20347;-84
2022/08/21 21:00:30;;;;;;;5.03;1.98;;;18.10;99.90;;;;;;5086788;28;20031;-83
2022/08/21 21:03:06;;;;;;;4.47;1.67;;;18.00;99.90;;;;;;5089963;28;20032;-84
2022/08/21 21:05:39;;;;;;;6.82;2.15;;;18.00;99.90;;;;;;5078978;28;20024;-86
2022/08/21 21:08:15;;;;;;;7.68;1.90;;;18.00;99.90;;;;;;5079266;28;20485;-85
2022/08/21 21:11:01;;;;;;;6.07;1.92;;;17.90;99.90;;;;;;5068312;28;20032;-83
2022/08/21 21:13:27;;;;;;;;;;;17.90;99.90;;;;;;5079198;28;20087;-84
2022/08/21 21:15:57;;;;;;;9.48;2.13;;;17.80;99.90;;;;;;5090354;28;20346;-84
2022/08/21 21:18:33;;;;;;;2.85;1.67;;;17.70;99.90;;;;;;5092834;28;20228;-84
2022/08/21 21:21:19;;;;;;;5.93;2.42;;;17.70;99.90;;;;;;5089443;28;20469;-83
2022/08/21 21:24:00;;;;;;;7.65;1.90;;;17.60;99.90;;;;;;5083965;28;20377;-83
2022/08/21 21:26:39;;;;;;;5.85;1.70;;;17.40;99.90;;;;;;5087795;28;20032;-84
2022/08/21 21:29:16;;;;;;;9.18;1.98;;;17.40;99.90;;;;;;5082920;28;20032;-83
2022/08/21 21:31:42;;;;;;;5.82;1.70;;;17.30;99.90;;;;;;5080028;28;20070;-84
2022/08/21 21:34:08;;;;;;;2.45;1.60;;;17.30;99.90;;;;;;5086765;28;20031;-84
2022/08/21 21:36:57;;;;;;;2.58;1.67;;;17.20;99.90;;;;;;5086875;28;20044;-86
2022/08/21 21:39:29;;;;;;;4.18;1.95;;;17.20;99.90;;;;;;5059778;28;20766;-84
2022/08/21 21:42:00;;;;;;;7.90;2.10;;;17.20;99.90;;;;;;5075347;28;20116;-84
2022/08/21 21:44:44;;;;;;;3.47;1.60;;;17.10;99.90;;;;;;5083307;28;20032;-83
2022/08/21 21:47:22;;;;;;;6.60;2.88;;;17.00;99.90;;;;;;5073834;28;20024;-84
2022/08/21 21:50:03;;;;;;;3.88;1.67;;;17.10;99.90;;;;;;5081791;28;20030;-85
2022/08/21 21:52:45;;;;;;;3.00;1.20;;;17.00;99.90;;;;;;5089192;28;20035;-84
2022/08/21 21:55:23;;;;;;;6.45;1.98;;;17.00;99.90;;;;;;5083882;28;20032;-84
2022/08/21 21:57:57;;;;;;;4.43;1.50;;;16.90;99.90;;;;;;5078010;28;20056;-84
2022/08/21 22:00:26;;;;;;;4.68;1.50;;;17.00;99.90;;;;;;5078062;28;20110;-85
2022/08/21 22:03:05;;;;;;;5.20;1.38;;;16.90;99.90;;;;;;5082141;28;20397;-84
2022/08/21 22:05:56;;;;;;;8.10;1.45;;;16.80;99.90;;;;;;5081067;28;20035;-84
2022/08/21 22:08:27;;;;;;;3.35;1.55;;;16.80;99.90;;;;;;5085264;28;20063;-86
2022/08/21 22:11:03;;;;;;;15.50;3.35;;;16.90;99.90;;;;;;5076877;28;20630;-84
2022/08/21 22:13:43;;;;;;;5.20;1.90;;;16.90;99.90;;;;;;5078594;28;20035;-85
2022/08/21 22:16:10;;;;;;;7.32;1.77;;;16.80;99.90;;;;;;5082853;28;20045;-84
2022/08/21 22:18:41;;;;;;;6.15;1.83;;;16.70;99.90;;;;;;5078983;28;20035;-83
2022/08/21 22:21:17;;;;;;;7.55;2.30;;;16.70;99.90;;;;;;5078631;28;20067;-83
2022/08/21 22:23:48;;;;;;;8.85;2.20;;;16.70;99.90;;;;;;5078070;28;20029;-84
2022/08/21 22:26:18;;;;;;;6.38;2.28;;;16.70;99.90;;;;;;5076239;28;20309;-84
2022/08/21 22:28:47;;;;;;;6.68;2.65;;;16.70;99.90;;;;;;5088350;28;20051;-83
2022/08/21 22:31:29;;;;;;;6.32;2.30;;;16.60;99.90;;;;;;5089637;28;20037;-83